Terminal Aerodrome Forecast
Issued by NWS

Home | Current Version | Previous Version | Text Only | Print | Product List | Glossary On
Versions: 1 2 3 4 5 6 7 8 9 10 11 12 13 14 15 16 17
782
FTUS42 KMLB 242139 AAC
TAFFPR
TAF AMD
KFPR 242139Z 2422/2518 04012G20KT P6SM VCSH FEW007 SCT015 BKN020
      TEMPO 2421/2423 6SM -SHRA BR=

USA.gov is the U.S. government's official web portal to all federal, state and local government web resources and services.